Time;durP1;ratioP1;P1;durP2;ratioP2;P2;SDS_P1;SDS_P2;PMS_P1;PMS_P2;Temp;Humidity;BMP_temperature;BMP_pressure;BME280_temperature;BME280_humidity;BME280_pressure;Samples;Min_cycle;Max_cycle;Signal;HPM_P1;HPM_P2
2023/04/11 00:01:50;;;;;;;;;0.75;0.75;;;;;;;;5003834;28;62167;-80
2023/04/11 00:04:16;;;;;;;;;2.00;0.00;;;;;;;;4986689;28;61941;-79
2023/04/11 00:06:41;;;;;;;;;4.00;1.00;;;;;;;;5002817;28;61914;-80
2023/04/11 00:09:06;;;;;;;;;0.25;0.00;;;;;;;;5003206;28;61985;-80
2023/04/11 00:11:32;;;;;;;;;0.50;0.50;;;;;;;;5002544;28;62348;-80
2023/04/11 00:13:57;;;;;;;;;2.75;0.00;;;;;;;;4981636;28;61852;-80
2023/04/11 00:16:23;;;;;;;;;2.75;0.00;;;;;;;;4982416;28;62210;-80
2023/04/11 00:18:48;;;;;;;;;1.00;1.00;;;;;;;;4983928;28;61750;-80
2023/04/11 00:21:14;;;;;;;;;0.25;0.00;;;;;;;;4979298;28;61878;-80
2023/04/11 00:23:39;;;;;;;;;1.25;0.00;;;;;;;;5003727;28;61721;-80
2023/04/11 00:26:05;;;;;;;;;1.00;0.50;;;;;;;;4983525;28;63846;-80
2023/04/11 00:28:30;;;;;;;;;0.00;0.00;;;;;;;;5002971;28;61923;-80
2023/04/11 00:30:55;;;;;;;;;0.00;0.00;;;;;;;;5003165;28;61885;-80
2023/04/11 00:33:21;;;;;;;;;1.50;1.00;;;;;;;;4986147;28;61901;-80
2023/04/11 00:35:46;;;;;;;;;1.25;0.00;;;;;;;;5003121;28;62757;-79
2023/04/11 00:38:11;;;;;;;;;1.25;0.00;;;;;;;;4985671;28;61701;-80
2023/04/11 00:40:36;;;;;;;;;1.25;1.00;;;;;;;;4995122;28;61947;-79
2023/04/11 00:43:02;;;;;;;;;1.00;0.00;;;;;;;;4983457;28;61808;-80
2023/04/11 00:45:27;;;;;;;;;0.50;0.25;;;;;;;;4983287;28;62263;-79
2023/04/11 00:47:52;;;;;;;;;0.00;0.00;;;;;;;;4985659;28;62030;-80
2023/04/11 00:50:20;;;;;;;;;2.00;1.00;;;;;;;;5003230;28;61720;-79
2023/04/11 00:52:46;;;;;;;;;3.75;1.00;;;;;;;;4985477;28;61805;-79
2023/04/11 00:55:12;;;;;;;;;1.00;0.00;;;;;;;;4984277;28;63606;-80
2023/04/11 00:57:38;;;;;;;;;3.00;1.00;;;;;;;;4968961;28;62367;-80
2023/04/11 01:00:03;;;;;;;;;0.50;0.50;;;;;;;;4965739;28;61785;-80
2023/04/11 01:02:29;;;;;;;;;3.25;0.50;;;;;;;;4965985;28;62149;-79
2023/04/11 01:04:55;;;;;;;;;2.50;0.75;;;;;;;;4975484;28;63659;-80
2023/04/11 01:07:21;;;;;;;;;2.25;0.75;;;;;;;;4985187;28;61761;-80
2023/04/11 01:09:47;;;;;;;;;1.00;1.00;;;;;;;;5003238;28;61890;-80
2023/04/11 01:12:13;;;;;;;;;1.00;1.00;;;;;;;;4983619;28;61993;-80
2023/04/11 01:14:39;;;;;;;;;2.00;0.00;;;;;;;;5002695;28;62802;-80
2023/04/11 01:17:06;;;;;;;;;0.25;0.25;;;;;;;;4985021;28;61721;-81
2023/04/11 01:19:32;;;;;;;;;1.00;0.00;;;;;;;;5003015;28;61713;-81
2023/04/11 01:21:57;;;;;;;;;0.00;0.00;;;;;;;;4985571;28;61749;-80
2023/04/11 01:24:23;;;;;;;;;2.00;0.25;;;;;;;;4984048;28;63720;-80
2023/04/11 01:26:48;;;;;;;;;2.25;0.50;;;;;;;;5002340;28;62003;-80
2023/04/11 01:29:13;;;;;;;;;4.00;1.00;;;;;;;;4984412;28;62008;-80
2023/04/11 01:31:39;;;;;;;;;0.75;0.75;;;;;;;;4984774;28;62094;-80
2023/04/11 01:34:04;;;;;;;;;0.50;0.00;;;;;;;;4981014;28;65072;-80
2023/04/11 01:36:31;;;;;;;;;3.00;0.00;;;;;;;;4965210;28;62282;-80
2023/04/11 01:38:56;;;;;;;;;2.00;0.75;;;;;;;;4964765;28;61984;-79
2023/04/11 01:41:23;;;;;;;;;1.00;1.00;;;;;;;;4963231;28;62083;-80
2023/04/11 01:43:49;;;;;;;;;3.50;1.00;;;;;;;;4964941;28;64102;-80
2023/04/11 01:46:14;;;;;;;;;3.00;0.00;;;;;;;;4982471;28;61821;-80
2023/04/11 01:48:41;;;;;;;;;1.00;0.00;;;;;;;;4965570;28;61800;-79
2023/04/11 01:51:07;;;;;;;;;0.00;0.00;;;;;;;;4982991;28;61642;-80
2023/04/11 01:53:32;;;;;;;;;1.25;0.00;;;;;;;;4964250;28;64537;-79
2023/04/11 01:55:57;;;;;;;;;1.75;0.00;;;;;;;;4964899;28;61917;-80
2023/04/11 01:58:22;;;;;;;;;4.00;2.00;;;;;;;;4982564;28;62193;-80
2023/04/11 02:00:48;;;;;;;;;1.00;0.00;;;;;;;;4965156;28;62035;-79
2023/04/11 02:03:13;;;;;;;;;3.00;0.50;;;;;;;;4981887;28;61958;-79
2023/04/11 02:05:38;;;;;;;;;3.25;0.75;;;;;;;;4982601;28;61765;-80
2023/04/11 02:08:03;;;;;;;;;1.50;0.00;;;;;;;;4982356;28;61728;-79
2023/04/11 02:10:29;;;;;;;;;2.25;1.00;;;;;;;;4980557;28;62524;-80
2023/04/11 02:12:54;;;;;;;;;0.00;0.00;;;;;;;;4982254;28;61758;-79
2023/04/11 02:15:19;;;;;;;;;3.00;0.00;;;;;;;;4982420;28;62133;-80
2023/04/11 02:17:45;;;;;;;;;1.50;0.00;;;;;;;;4982391;28;61904;-80
2023/04/11 02:20:11;;;;;;;;;3.25;0.75;;;;;;;;4981331;28;61776;-79
2023/04/11 02:22:37;;;;;;;;;1.00;1.00;;;;;;;;4981377;28;61793;-79
2023/04/11 02:25:02;;;;;;;;;0.25;0.25;;;;;;;;4980660;28;62189;-80
2023/04/11 02:27:27;;;;;;;;;2.25;0.00;;;;;;;;4964518;28;61995;-79
2023/04/11 02:29:52;;;;;;;;;1.00;0.00;;;;;;;;4981033;28;61790;-79
2023/04/11 02:32:18;;;;;;;;;3.00;0.00;;;;;;;;4973668;28;64761;-79
2023/04/11 02:34:43;;;;;;;;;0.75;0.00;;;;;;;;4964725;28;61888;-79
2023/04/11 02:37:08;;;;;;;;;3.00;0.00;;;;;;;;4964402;28;61911;-79
2023/04/11 02:39:34;;;;;;;;;1.75;1.00;;;;;;;;4948909;28;61992;-79
2023/04/11 02:42:00;;;;;;;;;0.75;0.00;;;;;;;;4962132;28;61754;-80
2023/04/11 02:44:25;;;;;;;;;0.25;0.00;;;;;;;;4962606;28;61774;-80
2023/04/11 02:46:50;;;;;;;;;2.00;0.00;;;;;;;;4962521;28;61842;-79
2023/04/11 02:49:15;;;;;;;;;1.50;1.50;;;;;;;;4962936;28;62012;-79
2023/04/11 02:51:41;;;;;;;;;1.50;0.00;;;;;;;;4964659;28;62069;-79
2023/04/11 02:54:06;;;;;;;;;1.25;0.25;;;;;;;;4979406;28;62113;-79
2023/04/11 02:56:33;;;;;;;;;2.00;1.00;;;;;;;;4984613;28;62073;-79
2023/04/11 02:58:59;;;;;;;;;3.50;1.25;;;;;;;;4967419;28;61931;-79
2023/04/11 03:01:24;;;;;;;;;2.00;0.75;;;;;;;;4984811;28;63082;-80
2023/04/11 03:03:49;;;;;;;;;1.00;0.00;;;;;;;;4985428;28;61734;-79
2023/04/11 03:06:15;;;;;;;;;3.50;1.00;;;;;;;;4967048;28;61743;-79
2023/04/11 03:08:40;;;;;;;;;2.00;0.00;;;;;;;;4967402;28;62014;-79
2023/04/11 03:11:05;;;;;;;;;0.00;0.00;;;;;;;;4966637;28;64490;-79
2023/04/11 03:13:31;;;;;;;;;0.50;0.00;;;;;;;;4985203;28;61710;-79
2023/04/11 03:15:57;;;;;;;;;3.00;0.00;;;;;;;;4985251;28;61719;-79
2023/04/11 03:18:22;;;;;;;;;3.50;0.75;;;;;;;;5000141;28;62366;-79
2023/04/11 03:20:48;;;;;;;;;0.00;0.00;;;;;;;;4984335;28;62440;-79
2023/04/11 03:23:13;;;;;;;;;1.25;1.00;;;;;;;;4985090;28;62069;-79
2023/04/11 03:25:39;;;;;;;;;0.00;0.00;;;;;;;;4986688;28;62187;-79
2023/04/11 03:28:04;;;;;;;;;1.25;0.75;;;;;;;;4985320;28;61713;-79
2023/04/11 03:30:30;;;;;;;;;3.25;1.00;;;;;;;;4966128;28;63721;-79
2023/04/11 03:32:59;;;;;;;;;1.00;0.00;;;;;;;;4984530;28;61962;-79
2023/04/11 03:35:24;;;;;;;;;0.50;0.50;;;;;;;;4967055;28;62167;-79
2023/04/11 03:37:50;;;;;;;;;2.50;1.00;;;;;;;;4967056;28;61828;-79
2023/04/11 03:40:17;;;;;;;;;1.00;1.00;;;;;;;;4990168;28;62295;-79
2023/04/11 03:42:42;;;;;;;;;2.25;1.00;;;;;;;;4986168;28;62156;-79
2023/04/11 03:45:08;;;;;;;;;2.00;0.00;;;;;;;;4986634;28;61961;-79
2023/04/11 03:47:33;;;;;;;;;2.00;0.00;;;;;;;;5004261;28;61895;-79
2023/04/11 03:50:00;;;;;;;;;3.75;0.50;;;;;;;;4985462;28;63995;-79
2023/04/11 03:52:25;;;;;;;;;3.00;1.00;;;;;;;;4986324;28;61903;-79
2023/04/11 03:54:50;;;;;;;;;1.00;0.25;;;;;;;;5004259;28;62039;-79
2023/04/11 03:57:15;;;;;;;;;2.00;1.00;;;;;;;;4986143;28;61899;-79
2023/04/11 03:59:40;;;;;;;;;0.25;0.25;;;;;;;;5001443;28;63654;-79
2023/04/11 04:02:06;;;;;;;;;2.00;0.75;;;;;;;;5003879;28;62124;-79
2023/04/11 04:04:32;;;;;;;;;2.00;1.00;;;;;;;;5003776;28;61736;-79
2023/04/11 04:06:57;;;;;;;;;0.75;0.00;;;;;;;;5003756;28;61675;-79
2023/04/11 04:09:22;;;;;;;;;1.75;0.75;;;;;;;;5002318;28;63479;-79
2023/04/11 04:11:48;;;;;;;;;0.75;0.75;;;;;;;;5022106;28;62099;-80
2023/04/11 04:14:13;;;;;;;;;0.00;0.00;;;;;;;;5004908;28;61979;-79
2023/04/11 04:16:39;;;;;;;;;0.00;0.00;;;;;;;;5005259;28;62250;-79
2023/04/11 04:19:04;;;;;;;;;0.75;0.00;;;;;;;;5022758;28;61732;-79
2023/04/11 04:21:31;;;;;;;;;3.25;1.00;;;;;;;;5023634;28;61903;-79
2023/04/11 04:23:56;;;;;;;;;0.50;0.00;;;;;;;;5023589;28;61794;-79
2023/04/11 04:26:23;;;;;;;;;0.75;0.75;;;;;;;;5023678;28;61759;-79
2023/04/11 04:28:49;;;;;;;;;3.75;0.00;;;;;;;;5004328;28;64765;-79
2023/04/11 04:31:20;;;;;;;;;3.25;1.00;;;;;;;;5022271;28;61900;-80
2023/04/11 04:33:48;;;;;;;;;3.25;1.00;;;;;;;;4985329;28;62019;-80
2023/04/11 04:36:16;;;;;;;;;1.00;1.00;;;;;;;;4996734;28;61991;-79
2023/04/11 04:38:41;;;;;;;;;2.75;1.00;;;;;;;;5003026;28;61942;-79
2023/04/11 04:41:13;;;;;;;;;1.00;0.25;;;;;;;;4985233;28;61922;-79
2023/04/11 04:43:40;;;;;;;;;0.00;0.00;;;;;;;;5003625;28;61986;-79
2023/04/11 04:46:05;;;;;;;;;3.00;1.00;;;;;;;;4985584;28;62251;-79
2023/04/11 04:48:31;;;;;;;;;2.75;1.00;;;;;;;;5002495;28;62067;-79
2023/04/11 04:50:56;;;;;;;;;1.25;1.25;;;;;;;;4985493;28;61999;-79
2023/04/11 04:53:21;;;;;;;;;2.25;1.00;;;;;;;;4985709;28;61906;-79
2023/04/11 04:55:46;;;;;;;;;2.00;0.00;;;;;;;;5003115;28;62062;-79
2023/04/11 04:58:12;;;;;;;;;7.00;2.00;;;;;;;;5002573;28;62824;-79
2023/04/11 05:00:39;;;;;;;;;0.00;0.00;;;;;;;;5002756;28;61979;-79
2023/04/11 05:03:07;;;;;;;;;1.00;1.00;;;;;;;;5001211;28;61702;-78
2023/04/11 05:05:33;;;;;;;;;0.25;0.25;;;;;;;;4985304;28;61965;-79
2023/04/11 05:07:59;;;;;;;;;1.00;0.00;;;;;;;;5000378;28;63525;-82
2023/04/11 05:10:27;;;;;;;;;1.75;0.25;;;;;;;;5000032;28;62219;-80
2023/04/11 05:12:53;;;;;;;;;1.50;0.25;;;;;;;;5002962;28;61585;-80
2023/04/11 05:15:21;;;;;;;;;0.75;0.00;;;;;;;;5003246;28;61792;-79
2023/04/11 05:17:47;;;;;;;;;1.25;1.25;;;;;;;;5001825;28;61811;-79
2023/04/11 05:20:12;;;;;;;;;1.00;1.00;;;;;;;;5002824;28;61824;-80
2023/04/11 05:22:37;;;;;;;;;2.75;0.00;;;;;;;;5002630;28;61841;-80
2023/04/11 05:25:03;;;;;;;;;2.25;1.00;;;;;;;;5004860;28;61752;-79
2023/04/11 05:27:28;;;;;;;;;2.00;1.00;;;;;;;;5000516;28;64804;-79
2023/04/11 05:29:53;;;;;;;;;0.75;0.00;;;;;;;;5001711;28;61818;-79
2023/04/11 05:32:18;;;;;;;;;0.50;0.25;;;;;;;;4997542;28;62060;-78
2023/04/11 05:34:51;;;;;;;;;1.00;0.00;;;;;;;;5005012;28;62073;-79
2023/04/11 05:37:16;;;;;;;;;2.50;1.00;;;;;;;;4987752;28;63738;-81
2023/04/11 05:39:42;;;;;;;;;1.00;0.00;;;;;;;;5001218;28;62212;-82
2023/04/11 05:42:07;;;;;;;;;2.25;1.00;;;;;;;;4988092;28;62112;-81
2023/04/11 05:44:32;;;;;;;;;3.00;1.00;;;;;;;;5002736;28;61775;-80
2023/04/11 05:46:57;;;;;;;;;0.50;0.50;;;;;;;;4982753;28;63926;-80
2023/04/11 05:49:23;;;;;;;;;2.00;0.75;;;;;;;;5001596;28;62324;-79
2023/04/11 05:51:48;;;;;;;;;1.00;1.00;;;;;;;;4995387;28;62307;-80
2023/04/11 05:54:17;;;;;;;;;1.50;0.00;;;;;;;;5001582;28;61944;-80
2023/04/11 05:56:42;;;;;;;;;4.00;1.00;;;;;;;;4982894;28;65251;-80
2023/04/11 05:59:08;;;;;;;;;5.00;1.00;;;;;;;;5000947;28;61764;-80
2023/04/11 06:01:33;;;;;;;;;4.25;2.00;;;;;;;;4983554;28;61953;-80
2023/04/11 06:03:58;;;;;;;;;4.75;2.00;;;;;;;;4984300;28;61856;-80
2023/04/11 06:06:24;;;;;;;;;1.00;1.00;;;;;;;;5000827;28;62043;-81
2023/04/11 06:08:50;;;;;;;;;0.75;0.75;;;;;;;;4984137;28;62309;-81
2023/04/11 06:11:15;;;;;;;;;0.50;0.00;;;;;;;;4972199;28;61857;-79
2023/04/11 06:13:40;;;;;;;;;2.75;1.75;;;;;;;;4964982;28;61839;-79
2023/04/11 06:16:06;;;;;;;;;8.25;2.00;;;;;;;;4963805;28;65042;-79
2023/04/11 06:18:31;;;;;;;;;3.50;2.75;;;;;;;;4964272;28;61908;-79
2023/04/11 06:20:56;;;;;;;;;9.25;1.00;;;;;;;;4982369;28;61773;-79
2023/04/11 06:23:21;;;;;;;;;0.50;0.00;;;;;;;;4964593;28;61959;-80
2023/04/11 06:25:46;;;;;;;;;1.00;1.00;;;;;;;;4966901;28;63699;-79
2023/04/11 06:28:12;;;;;;;;;3.50;1.00;;;;;;;;4968011;28;62292;-79
2023/04/11 06:30:37;;;;;;;;;3.00;1.25;;;;;;;;4967328;28;61816;-79
2023/04/11 06:33:03;;;;;;;;;1.75;1.75;;;;;;;;4983224;28;61975;-78
2023/04/11 06:35:28;;;;;;;;;4.00;1.00;;;;;;;;5003318;28;61726;-79
2023/04/11 06:37:53;;;;;;;;;2.00;1.00;;;;;;;;5005206;28;62235;-79
2023/04/11 06:40:19;;;;;;;;;3.50;1.25;;;;;;;;4979994;28;61947;-78
2023/04/11 06:42:46;;;;;;;;;3.50;0.75;;;;;;;;4985560;28;62204;-78
2023/04/11 06:45:11;;;;;;;;;2.00;1.00;;;;;;;;4984332;28;61996;-78
2023/04/11 06:47:37;;;;;;;;;3.50;1.00;;;;;;;;4966884;28;61968;-80
2023/04/11 06:50:02;;;;;;;;;1.75;1.00;;;;;;;;4967802;28;61804;-79
2023/04/11 06:52:29;;;;;;;;;2.00;2.00;;;;;;;;4967480;28;62097;-79
2023/04/11 06:54:54;;;;;;;;;2.00;0.00;;;;;;;;4966516;28;63777;-80
2023/04/11 06:57:19;;;;;;;;;1.50;1.25;;;;;;;;4966887;28;62026;-79
2023/04/11 06:59:45;;;;;;;;;1.00;1.00;;;;;;;;4959662;28;61809;-79
2023/04/11 07:02:10;;;;;;;;;2.25;1.75;;;;;;;;4948342;28;61799;-80
2023/04/11 07:04:35;;;;;;;;;1.75;1.75;;;;;;;;4961084;28;63845;-79
2023/04/11 07:07:00;;;;;;;;;1.00;1.00;;;;;;;;4984932;28;62201;-76
2023/04/11 07:09:25;;;;;;;;;2.25;2.00;;;;;;;;4982105;28;61923;-76
2023/04/11 07:11:51;;;;;;;;;6.50;1.00;;;;;;;;4983142;28;61832;-77
2023/04/11 07:14:17;;;;;;;;;2.50;1.25;;;;;;;;4976355;28;62960;-78
2023/04/11 07:16:42;;;;;;;;;1.00;1.00;;;;;;;;4954742;28;61971;-80
2023/04/11 07:19:07;;;;;;;;;4.00;2.00;;;;;;;;4965269;28;61755;-78
2023/04/11 07:21:32;;;;;;;;;1.00;1.00;;;;;;;;4982119;28;62197;-79
2023/04/11 07:23:59;;;;;;;;;2.25;1.50;;;;;;;;4980317;28;61875;-80
2023/04/11 07:26:26;;;;;;;;;6.00;1.00;;;;;;;;4983004;28;61928;-80
2023/04/11 07:28:51;;;;;;;;;4.50;0.75;;;;;;;;4964249;28;62067;-79
2023/04/11 07:31:18;;;;;;;;;1.00;1.00;;;;;;;;4984158;28;61797;-79
2023/04/11 07:33:44;;;;;;;;;2.50;1.75;;;;;;;;4965906;28;63684;-79
2023/04/11 07:36:09;;;;;;;;;1.50;1.50;;;;;;;;4983965;28;61857;-78
2023/04/11 07:38:36;;;;;;;;;1.25;1.00;;;;;;;;4966706;28;62067;-79
2023/04/11 07:41:02;;;;;;;;;4.75;1.50;;;;;;;;4993807;28;62130;-79
2023/04/11 07:43:28;;;;;;;;;3.00;1.75;;;;;;;;4965130;28;61757;-79
2023/04/11 07:45:53;;;;;;;;;3.50;1.00;;;;;;;;4984269;28;61743;-79
2023/04/11 07:48:22;;;;;;;;;4.25;1.00;;;;;;;;4984217;28;61849;-79
2023/04/11 07:50:48;;;;;;;;;1.00;0.25;;;;;;;;4984623;28;61754;-79
2023/04/11 07:53:13;;;;;;;;;2.00;0.00;;;;;;;;4983955;28;61918;-79
2023/04/11 07:55:39;;;;;;;;;9.00;1.25;;;;;;;;4983928;28;61894;-79
2023/04/11 07:58:04;;;;;;;;;3.25;2.25;;;;;;;;4984085;28;62376;-79
2023/04/11 08:00:31;;;;;;;;;1.50;1.00;;;;;;;;4965477;28;62156;-80
2023/04/11 08:02:58;;;;;;;;;4.25;2.00;;;;;;;;4963746;28;62109;-79
2023/04/11 08:05:23;;;;;;;;;1.00;1.00;;;;;;;;4964997;28;61772;-79
2023/04/11 08:07:48;;;;;;;;;3.00;1.00;;;;;;;;4946500;28;62032;-79
2023/04/11 08:10:13;;;;;;;;;1.00;1.00;;;;;;;;4965115;28;61801;-80
2023/04/11 08:12:39;;;;;;;;;1.50;1.25;;;;;;;;4963354;28;62079;-79
2023/04/11 08:15:05;;;;;;;;;1.25;0.00;;;;;;;;4947011;28;61892;-79
2023/04/11 08:17:36;;;;;;;;;1.00;1.00;;;;;;;;4964313;28;62140;-79
2023/04/11 08:20:03;;;;;;;;;1.00;1.00;;;;;;;;4947285;28;61954;-79
2023/04/11 08:22:29;;;;;;;;;2.25;1.00;;;;;;;;4946485;28;64623;-79
2023/04/11 08:24:55;;;;;;;;;3.00;0.00;;;;;;;;4946534;28;61726;-79
2023/04/11 08:27:20;;;;;;;;;2.75;1.50;;;;;;;;4963819;28;61789;-79
2023/04/11 08:29:45;;;;;;;;;2.25;0.00;;;;;;;;4946589;28;61973;-79
2023/04/11 08:32:10;;;;;;;;;1.50;1.50;;;;;;;;4979471;28;61845;-79
2023/04/11 08:34:36;;;;;;;;;1.00;0.00;;;;;;;;4985905;28;61677;-79
2023/04/11 08:37:02;;;;;;;;;2.25;1.00;;;;;;;;5002776;28;61692;-79
2023/04/11 08:39:27;;;;;;;;;2.75;1.00;;;;;;;;4985600;28;61944;-79
2023/04/11 08:41:52;;;;;;;;;0.25;0.00;;;;;;;;5002225;28;62959;-78
2023/04/11 08:44:18;;;;;;;;;3.50;0.50;;;;;;;;4985433;28;61944;-79
2023/04/11 08:46:43;;;;;;;;;1.00;1.00;;;;;;;;4985520;28;61767;-79
2023/04/11 08:49:09;;;;;;;;;0.00;0.00;;;;;;;;5001627;28;61718;-79
2023/04/11 08:51:35;;;;;;;;;1.50;1.50;;;;;;;;5002802;28;61828;-79
2023/04/11 08:54:03;;;;;;;;;1.00;0.75;;;;;;;;4990184;28;62032;-79
2023/04/11 08:56:28;;;;;;;;;1.50;1.00;;;;;;;;4983003;28;62168;-79
2023/04/11 08:58:53;;;;;;;;;7.00;1.00;;;;;;;;4982431;28;62398;-79
2023/04/11 09:01:28;;;;;;;;;1.75;1.00;;;;;;;;4982726;28;61778;-79
2023/04/11 09:03:54;;;;;;;;;0.00;0.00;;;;;;;;4965742;28;61931;-79
2023/04/11 09:06:19;;;;;;;;;0.00;0.00;;;;;;;;4965641;28;61691;-80
2023/04/11 09:08:44;;;;;;;;;0.75;0.50;;;;;;;;4963918;28;61907;-80
2023/04/11 09:11:10;;;;;;;;;2.00;1.00;;;;;;;;4945103;28;64759;-79
2023/04/11 09:13:35;;;;;;;;;2.50;1.00;;;;;;;;4945996;28;61892;-80
2023/04/11 09:16:13;;;;;;;;;3.50;0.50;;;;;;;;4963806;28;62130;-79
2023/04/11 09:18:43;;;;;;;;;3.75;1.50;;;;;;;;4946409;28;61782;-79
2023/04/11 09:21:09;;;;;;;;;3.25;1.50;;;;;;;;4945434;28;64707;-80
2023/04/11 09:23:35;;;;;;;;;2.00;0.00;;;;;;;;4963059;28;61915;-79
2023/04/11 09:26:01;;;;;;;;;2.50;1.75;;;;;;;;4945925;28;62508;-80
2023/04/11 09:28:26;;;;;;;;;2.50;0.00;;;;;;;;4945761;28;61879;-80
2023/04/11 09:30:52;;;;;;;;;1.25;1.25;;;;;;;;4962813;28;61742;-80
2023/04/11 09:33:21;;;;;;;;;6.00;2.00;;;;;;;;4980095;28;61938;-80
2023/04/11 09:35:48;;;;;;;;;3.00;1.00;;;;;;;;4965351;28;61858;-79
2023/04/11 09:38:13;;;;;;;;;4.50;2.00;;;;;;;;4964701;28;61942;-79
2023/04/11 09:40:42;;;;;;;;;1.75;1.00;;;;;;;;4991095;28;62844;-79
2023/04/11 09:43:07;;;;;;;;;1.75;1.00;;;;;;;;4984324;28;61856;-79
2023/04/11 09:45:32;;;;;;;;;0.00;0.00;;;;;;;;5002537;28;62194;-79
2023/04/11 09:47:58;;;;;;;;;3.00;0.50;;;;;;;;5002569;28;62055;-80
2023/04/11 09:50:24;;;;;;;;;2.00;1.00;;;;;;;;5001532;28;62114;-79
2023/04/11 09:52:51;;;;;;;;;1.75;1.25;;;;;;;;4984062;28;61860;-79
2023/04/11 09:55:20;;;;;;;;;2.50;1.00;;;;;;;;5002322;28;61959;-79
2023/04/11 09:57:47;;;;;;;;;0.25;0.25;;;;;;;;4984034;28;62327;-80
2023/04/11 10:00:15;;;;;;;;;1.00;1.00;;;;;;;;4982953;28;63678;-80
2023/04/11 10:02:41;;;;;;;;;2.50;1.25;;;;;;;;4970869;28;61864;-80
2023/04/11 10:05:07;;;;;;;;;0.75;0.00;;;;;;;;4964711;28;61989;-79
2023/04/11 10:07:34;;;;;;;;;0.00;0.00;;;;;;;;4964462;28;62312;-80
2023/04/11 10:09:59;;;;;;;;;0.75;0.75;;;;;;;;4982152;28;61866;-80
2023/04/11 10:12:31;;;;;;;;;0.50;0.50;;;;;;;;4964299;28;61899;-80
2023/04/11 10:14:57;;;;;;;;;0.00;0.00;;;;;;;;4957256;28;61772;-79
2023/04/11 10:17:23;;;;;;;;;4.50;1.00;;;;;;;;4997342;28;62085;-79
2023/04/11 10:19:50;;;;;;;;;2.75;1.00;;;;;;;;4981685;28;61800;-80
2023/04/11 10:22:34;;;;;;;;;3.00;2.00;;;;;;;;4981822;28;61782;-79
2023/04/11 10:25:18;;;;;;;;;2.00;0.75;;;;;;;;4991597;28;61745;-79
2023/04/11 10:27:49;;;;;;;;;2.00;1.00;;;;;;;;5001592;28;61885;-79
2023/04/11 10:30:14;;;;;;;;;2.00;0.75;;;;;;;;5000872;28;62768;-80
2023/04/11 10:32:40;;;;;;;;;3.25;0.25;;;;;;;;4983487;28;62171;-80
2023/04/11 10:35:15;;;;;;;;;3.00;1.50;;;;;;;;4983746;28;62026;-80
2023/04/11 10:37:40;;;;;;;;;3.75;1.00;;;;;;;;4983339;28;61838;-80
2023/04/11 10:40:08;;;;;;;;;1.75;1.00;;;;;;;;4983237;28;64008;-80
2023/04/11 10:42:34;;;;;;;;;2.25;1.00;;;;;;;;4982881;28;61706;-80
2023/04/11 10:45:25;;;;;;;;;0.00;0.00;;;;;;;;5001348;28;61934;-80
2023/04/11 10:47:50;;;;;;;;;1.50;1.00;;;;;;;;4972868;28;61841;-81
2023/04/11 10:50:27;;;;;;;;;2.00;1.00;;;;;;;;5000005;28;62901;-78
2023/04/11 10:52:57;;;;;;;;;4.00;0.75;;;;;;;;5001329;28;62015;-79
2023/04/11 10:55:22;;;;;;;;;1.00;1.00;;;;;;;;5001737;28;61777;-79
2023/04/11 10:58:07;;;;;;;;;5.25;2.00;;;;;;;;5000941;28;61735;-79
2023/04/11 11:00:48;;;;;;;;;0.25;0.25;;;;;;;;5000213;28;61950;-79
2023/04/11 11:03:20;;;;;;;;;2.50;2.00;;;;;;;;4982871;28;61987;-79
2023/04/11 11:05:46;;;;;;;;;2.00;0.00;;;;;;;;4982647;28;61760;-79
2023/04/11 11:08:12;;;;;;;;;3.50;0.00;;;;;;;;4983484;28;61803;-79
2023/04/11 11:10:38;;;;;;;;;0.00;0.00;;;;;;;;5000522;28;61966;-79
2023/04/11 11:13:03;;;;;;;;;2.75;0.25;;;;;;;;5004759;28;61744;-80
2023/04/11 11:15:29;;;;;;;;;1.00;0.00;;;;;;;;4986664;28;61891;-78
2023/04/11 11:17:54;;;;;;;;;1.75;1.75;;;;;;;;5004747;28;61855;-78
2023/04/11 11:20:20;;;;;;;;;1.00;0.00;;;;;;;;5003445;28;61842;-78
2023/04/11 11:23:02;;;;;;;;;0.25;0.25;;;;;;;;4996735;28;61813;-80
2023/04/11 11:25:27;;;;;;;;;0.00;0.00;;;;;;;;4967234;28;61870;-80
2023/04/11 11:27:58;;;;;;;;;4.25;1.00;;;;;;;;4984298;28;62019;-80
2023/04/11 11:30:24;;;;;;;;;0.00;0.00;;;;;;;;4966026;28;64622;-79
2023/04/11 11:32:49;;;;;;;;;0.00;0.00;;;;;;;;4979864;28;61841;-80
2023/04/11 11:35:14;;;;;;;;;1.00;0.25;;;;;;;;4986629;28;61791;-80
2023/04/11 11:37:40;;;;;;;;;0.75;0.25;;;;;;;;4986538;28;62106;-80
2023/04/11 11:40:11;;;;;;;;;0.00;0.00;;;;;;;;4984918;28;63411;-79
2023/04/11 11:42:36;;;;;;;;;4.00;1.00;;;;;;;;4986115;28;61981;-80
2023/04/11 11:45:15;;;;;;;;;1.25;0.25;;;;;;;;4986112;28;62050;-80
2023/04/11 11:47:41;;;;;;;;;1.75;0.00;;;;;;;;4986166;28;61658;-80
2023/04/11 11:50:06;;;;;;;;;4.50;0.75;;;;;;;;4985399;28;63781;-80
2023/04/11 11:52:32;;;;;;;;;0.25;0.25;;;;;;;;5004092;28;61871;-80
2023/04/11 11:54:58;;;;;;;;;2.00;0.25;;;;;;;;4986454;28;61737;-80
2023/04/11 11:57:23;;;;;;;;;0.25;0.25;;;;;;;;4986244;28;62026;-77
2023/04/11 11:59:55;;;;;;;;;4.75;1.00;;;;;;;;5002734;28;62733;-78
2023/04/11 12:02:27;;;;;;;;;4.75;1.00;;;;;;;;4985513;28;61978;-80
2023/04/11 12:04:59;;;;;;;;;0.50;0.50;;;;;;;;4986002;28;61911;-79
2023/04/11 12:07:25;;;;;;;;;2.00;1.00;;;;;;;;4986274;28;61949;-79
2023/04/11 12:09:57;;;;;;;;;2.00;2.00;;;;;;;;4985338;28;62859;-77
2023/04/11 12:12:22;;;;;;;;;2.75;1.50;;;;;;;;5003483;28;61800;-79
2023/04/11 12:14:52;;;;;;;;;0.00;0.00;;;;;;;;5003685;28;61747;-78
2023/04/11 12:17:17;;;;;;;;;2.00;1.00;;;;;;;;5003492;28;61935;-79
2023/04/11 12:19:42;;;;;;;;;0.50;0.00;;;;;;;;5003006;28;61874;-80
2023/04/11 12:22:08;;;;;;;;;0.00;0.00;;;;;;;;4985242;28;62027;-79
2023/04/11 12:24:33;;;;;;;;;2.00;1.00;;;;;;;;5003655;28;62029;-80
2023/04/11 12:26:58;;;;;;;;;0.00;0.00;;;;;;;;4985082;28;61839;-80
2023/04/11 12:29:23;;;;;;;;;0.75;0.75;;;;;;;;5002618;28;63147;-80
2023/04/11 12:31:48;;;;;;;;;1.75;0.75;;;;;;;;5002580;28;61819;-80
2023/04/11 12:34:14;;;;;;;;;0.25;0.25;;;;;;;;4985446;28;61950;-80
2023/04/11 12:36:39;;;;;;;;;0.00;0.00;;;;;;;;5003656;28;61903;-80
2023/04/11 12:39:04;;;;;;;;;0.00;0.00;;;;;;;;4984673;28;63632;-80
2023/04/11 12:41:30;;;;;;;;;1.50;0.00;;;;;;;;4985236;28;61990;-80
2023/04/11 12:43:55;;;;;;;;;5.00;0.25;;;;;;;;5003139;28;61772;-78
2023/04/11 12:46:20;;;;;;;;;1.00;1.00;;;;;;;;4985228;28;61834;-78
2023/04/11 12:48:45;;;;;;;;;1.50;0.75;;;;;;;;5002651;28;63319;-80
2023/04/11 12:51:11;;;;;;;;;1.00;1.00;;;;;;;;4985480;28;61731;-80
2023/04/11 12:53:36;;;;;;;;;0.00;0.00;;;;;;;;4985425;28;62079;-79
2023/04/11 12:56:01;;;;;;;;;2.00;1.00;;;;;;;;5003198;28;62085;-80
2023/04/11 12:58:27;;;;;;;;;2.25;1.00;;;;;;;;4984696;28;63775;-80
2023/04/11 13:00:52;;;;;;;;;0.75;0.00;;;;;;;;4984780;28;61794;-81
2023/04/11 13:03:18;;;;;;;;;0.00;0.00;;;;;;;;4985243;28;61978;-80
2023/04/11 13:05:43;;;;;;;;;2.75;0.50;;;;;;;;5003068;28;61666;-80
2023/04/11 13:08:08;;;;;;;;;3.00;0.00;;;;;;;;5001930;28;61991;-80
2023/04/11 13:10:33;;;;;;;;;4.50;0.00;;;;;;;;4985254;28;61797;-80
2023/04/11 13:12:59;;;;;;;;;4.25;0.50;;;;;;;;5002651;28;61833;-80
2023/04/11 13:15:24;;;;;;;;;2.33;1.00;;;;;;;;5002594;28;61793;-80
2023/04/11 13:17:49;;;;;;;;;3.00;1.50;;;;;;;;4984504;28;63629;-80
2023/04/11 13:20:15;;;;;;;;;0.00;0.00;;;;;;;;5002705;28;61891;-80
2023/04/11 13:22:41;;;;;;;;;0.00;0.00;;;;;;;;4985147;28;61868;-80
2023/04/11 13:25:07;;;;;;;;;0.75;0.75;;;;;;;;4984949;28;61777;-80
2023/04/11 13:27:32;;;;;;;;;0.50;0.00;;;;;;;;5001414;28;61932;-80
2023/04/11 13:29:57;;;;;;;;;0.25;0.25;;;;;;;;5001517;28;61801;-80
2023/04/11 13:32:23;;;;;;;;;0.50;0.00;;;;;;;;5002121;28;61993;-80
2023/04/11 13:34:48;;;;;;;;;1.00;1.00;;;;;;;;5001283;28;61819;-80
2023/04/11 13:37:13;;;;;;;;;1.25;0.25;;;;;;;;5001604;28;61900;-79
2023/04/11 13:39:38;;;;;;;;;1.75;1.00;;;;;;;;4984466;28;61940;-81
2023/04/11 13:42:03;;;;;;;;;2.75;0.00;;;;;;;;5000662;28;62347;-80
2023/04/11 13:44:29;;;;;;;;;3.00;0.00;;;;;;;;4975045;28;62022;-79
2023/04/11 13:46:54;;;;;;;;;1.00;0.75;;;;;;;;4990162;28;62004;-78
2023/04/11 13:49:20;;;;;;;;;2.50;1.00;;;;;;;;4992499;28;61824;-79
2023/04/11 13:51:45;;;;;;;;;1.00;0.75;;;;;;;;4993975;28;62057;-79
2023/04/11 13:54:10;;;;;;;;;1.00;1.00;;;;;;;;4974491;28;62131;-79
2023/04/11 13:56:35;;;;;;;;;0.25;0.25;;;;;;;;4991715;28;63155;-79
2023/04/11 13:59:01;;;;;;;;;0.00;0.00;;;;;;;;4972001;28;61838;-80
2023/04/11 14:01:26;;;;;;;;;0.00;0.00;;;;;;;;4991276;28;61801;-79
2023/04/11 14:03:51;;;;;;;;;0.00;0.00;;;;;;;;4974295;28;62059;-80
2023/04/11 14:06:18;;;;;;;;;2.00;0.25;;;;;;;;4991154;28;61783;-80
2023/04/11 14:08:43;;;;;;;;;0.00;0.00;;;;;;;;4973111;28;61873;-78
2023/04/11 14:11:08;;;;;;;;;1.00;0.00;;;;;;;;4990024;28;62162;-81
2023/04/11 14:13:34;;;;;;;;;0.67;0.67;;;;;;;;4991276;28;61906;-80
2023/04/11 14:15:59;;;;;;;;;2.50;0.00;;;;;;;;4973112;28;64896;-79
2023/04/11 14:18:25;;;;;;;;;0.25;0.00;;;;;;;;4992624;28;61896;-79
2023/04/11 14:20:50;;;;;;;;;2.00;1.00;;;;;;;;4993829;28;61831;-80
2023/04/11 14:23:16;;;;;;;;;0.75;0.75;;;;;;;;4975536;28;61828;-79
2023/04/11 14:25:41;;;;;;;;;0.75;0.75;;;;;;;;4990284;28;61780;-79
2023/04/11 14:28:07;;;;;;;;;1.25;0.00;;;;;;;;4991643;28;61981;-78
2023/04/11 14:30:32;;;;;;;;;0.50;0.50;;;;;;;;4974743;28;61851;-78
2023/04/11 14:32:57;;;;;;;;;3.00;1.00;;;;;;;;4978285;28;62119;-78
2023/04/11 14:35:22;;;;;;;;;1.50;0.00;;;;;;;;4972420;28;63399;-77
2023/04/11 14:37:48;;;;;;;;;0.75;0.75;;;;;;;;4994807;28;62271;-78